Terminal Aerodrome Forecast
Issued by NWS

Home | Current Version | Previous Version | Text Only | Print | Product List | Glossary On
Versions: 1 2 3 4 5 6 7 8 9 10 11 12 13 14 15 16 17
000
FTUS46 KSTO 281100
TAFSCK
TAF
KSCK 281138Z 2812/2912 VRB03KT 1/2SM FG OVC010
      TEMPO 2812/2816 1/4SM FG BKN002
     FM281800 VRB03KT 2SM BR SKC
     FM282100 VRB04KT 4SM HZ BKN250
     FM291000 VRB04KT 2SM BR OVC030=

USA.gov is the U.S. government's official web portal to all federal, state and local government web resources and services.